Time;durP1;ratioP1;P1;durP2;ratioP2;P2;SDS_P1;SDS_P2;PMS_P1;PMS_P2;Temp;Humidity;BMP_temperature;BMP_pressure;BME280_temperature;BME280_humidity;BME280_pressure;Samples;Min_cycle;Max_cycle;Signal;HPM_P1;HPM_P2
2023/12/11 00:03:08;;;;;;;72.00;27.58;;;;;;;2.31;84.74;97676.22;10330525;28;20049;-49
2023/12/11 00:08:07;;;;;;;66.72;27.88;;;;;;;2.55;84.19;97722.16;10330857;28;20029;-49
2023/12/11 00:13:06;;;;;;;90.88;39.63;;;;;;;2.36;84.37;97714.75;10330587;28;20026;-50
2023/12/11 00:18:05;;;;;;;95.20;38.63;;;;;;;1.80;84.41;97639.66;10329306;28;21379;-49
2023/12/11 00:23:06;;;;;;;;;;;;;;;2.34;84.87;97732.63;10329998;28;20087;-50
2023/12/11 00:28:05;;;;;;;;;;;;;;;2.14;85.54;97787.47;10328767;28;20431;-49
2023/12/11 00:33:04;;;;;;;72.85;30.05;;;;;;;2.01;85.55;97741.81;10329868;28;19912;-49
2023/12/11 00:38:02;;;;;;;97.85;47.20;;;;;;;0.76;85.55;97517.88;10329822;28;20029;-49
2023/12/11 00:43:02;;;;;;;73.03;32.10;;;;;;;2.05;85.87;97754.75;10329481;28;20388;-49
2023/12/11 00:48:01;;;;;;;70.78;31.90;;;;;;;2.17;85.70;97750.03;10329007;28;20437;-49
2023/12/11 00:53:00;;;;;;;92.13;42.92;;;;;;;2.31;86.01;97747.91;10329536;28;20468;-50
2023/12/11 00:57:58;;;;;;;83.05;33.53;;;;;;;2.11;86.45;97708.00;10328366;28;20739;-50
2023/12/11 01:02:57;;;;;;;74.20;30.90;;;;;;;2.27;86.22;97729.84;10328611;28;20041;-50
2023/12/11 01:07:56;;;;;;;66.90;26.52;;;;;;;2.20;85.99;97726.22;10328431;28;20032;-50
2023/12/11 01:12:55;;;;;;;59.88;25.05;;;;;;;2.16;86.17;97732.94;10327992;28;20064;-49
2023/12/11 01:17:54;;;;;;;68.28;26.42;;;;;;;1.95;86.47;97687.06;10326590;28;20025;-50
2023/12/11 01:22:53;;;;;;;57.20;23.15;;;;;;;2.27;86.71;97751.19;10326708;28;20053;-50
2023/12/11 01:27:53;;;;;;;59.70;24.10;;;;;;;2.25;86.31;97729.78;10326141;28;20037;-49
2023/12/11 01:32:51;;;;;;;;;;;;;;;2.44;86.18;97754.28;10327875;28;20499;-49
2023/12/11 01:37:50;;;;;;;59.67;25.13;;;;;;;1.85;85.82;97677.34;10326847;28;20335;-50
2023/12/11 01:42:49;;;;;;;57.67;25.02;;;;;;;1.79;86.42;97666.94;10327191;28;20048;-49
2023/12/11 01:47:48;;;;;;;59.58;25.20;;;;;;;2.28;86.36;97746.97;10327072;28;20034;-49
2023/12/11 01:52:49;;;;;;;67.97;26.95;;;;;;;2.36;86.37;97730.13;10327195;28;20103;-49
2023/12/11 01:57:48;;;;;;;71.25;27.88;;;;;;;2.36;85.68;97730.13;10326142;28;20060;-51
2023/12/11 02:02:47;;;;;;;77.25;28.92;;;;;;;2.46;86.49;97741.50;10326475;28;20041;-50
2023/12/11 02:07:46;;;;;;;94.93;40.22;;;;;;;2.42;86.00;97738.00;10325758;28;20110;-49
2023/12/11 02:12:45;;;;;;;81.95;36.67;;;;;;;2.34;86.23;97721.53;10324623;28;20057;-50
2023/12/11 02:17:44;;;;;;;79.90;29.35;;;;;;;2.49;85.46;97732.25;10324807;28;20069;-49
2023/12/11 02:22:43;;;;;;;75.82;28.90;;;;;;;2.49;86.16;97739.94;10326319;28;20064;-50
2023/12/11 02:27:42;;;;;;;;;;;;;;;2.34;86.28;97753.13;10325206;28;20132;-49
2023/12/11 02:32:41;;;;;;;63.38;24.58;;;;;;;2.38;86.13;97725.94;10325475;28;20292;-50
2023/12/11 02:37:40;;;;;;;61.38;25.13;;;;;;;2.54;86.16;97738.38;10325768;28;20032;-50
2023/12/11 02:42:45;;;;;;;59.83;24.38;;;;;;;2.29;86.72;97730.75;10325193;28;20038;-50
2023/12/11 02:47:44;;;;;;;67.40;24.60;;;;;;;2.30;86.07;97724.81;10325012;28;20049;-49
2023/12/11 02:52:43;;;;;;;88.70;23.30;;;;;;;2.20;85.94;97720.22;10325003;28;20030;-50
2023/12/11 02:57:42;;;;;;;64.90;23.25;;;;;;;1.67;86.06;97680.19;10324861;28;20816;-50
2023/12/11 03:02:41;;;;;;;68.95;24.35;;;;;;;2.03;86.46;97746.16;10324917;28;20037;-49
2023/12/11 03:07:40;;;;;;;67.72;27.23;;;;;;;2.13;86.57;97750.75;10324632;28;20516;-50
2023/12/11 03:12:40;;;;;;;59.60;23.92;;;;;;;2.12;86.69;97720.88;10324852;28;20033;-49
2023/12/11 03:17:38;;;;;;;;;;;;;;;2.38;86.00;97752.41;10325026;28;20477;-50
2023/12/11 03:22:37;;;;;;;75.72;25.10;;;;;;;2.29;86.52;97738.44;10324086;28;20370;-51
2023/12/11 03:27:36;;;;;;;127.18;28.25;;;;;;;2.12;86.50;97760.97;10324604;28;20065;-49
2023/12/11 03:32:36;;;;;;;80.03;26.08;;;;;;;1.96;87.16;97739.09;10324103;28;20040;-49
2023/12/11 03:37:35;;;;;;;80.75;27.27;;;;;;;2.03;87.41;97769.19;10325573;28;20479;-50
2023/12/11 03:42:34;;;;;;;72.93;26.95;;;;;;;1.85;87.51;97730.22;10331943;28;20411;-50
2023/12/11 03:47:33;;;;;;;88.57;27.42;;;;;;;1.91;87.93;97720.19;10329461;28;20029;-50
2023/12/11 03:52:32;;;;;;;94.93;26.40;;;;;;;2.17;86.93;97750.03;10329414;28;20065;-49
2023/12/11 03:57:31;;;;;;;72.78;25.98;;;;;;;1.94;87.08;97694.69;10328141;28;20040;-49
2023/12/11 04:02:30;;;;;;;89.47;25.83;;;;;;;1.57;86.63;97616.75;10328243;28;20515;-50
2023/12/11 04:07:29;;;;;;;104.80;26.25;;;;;;;1.97;87.30;97694.78;10328471;28;20035;-50
2023/12/11 04:12:28;;;;;;;65.97;21.92;;;;;;;1.69;87.14;97681.13;10369980;28;20508;-51
2023/12/11 04:17:27;;;;;;;63.00;21.65;;;;;;;1.86;87.92;97711.50;10369043;28;20447;-49
2023/12/11 04:22:26;;;;;;;113.03;25.55;;;;;;;1.58;88.59;97694.38;10367217;28;20047;-49
2023/12/11 04:27:25;;;;;;;82.40;25.27;;;;;;;1.59;88.42;97714.88;10369340;28;20028;-49
2023/12/11 04:32:24;;;;;;;62.47;24.52;;;;;;;1.64;88.13;97705.66;10368535;28;20108;-50
2023/12/11 04:37:23;;;;;;;133.30;43.30;;;;;;;1.62;88.90;97725.22;10328930;28;20029;-49
2023/12/11 04:42:22;;;;;;;147.52;28.63;;;;;;;1.63;88.57;97743.97;10327709;28;20037;-49
2023/12/11 04:47:20;;;;;;;189.32;31.02;;;;;;;1.56;89.24;97736.91;10327155;28;20322;-49
2023/12/11 04:52:19;;;;;;;153.95;29.05;;;;;;;1.60;89.26;97729.41;10326206;28;20428;-50
2023/12/11 04:57:18;;;;;;;118.57;31.75;;;;;;;1.40;89.37;97682.69;10326978;28;20036;-49
2023/12/11 05:02:17;;;;;;;100.85;26.55;;;;;;;1.68;89.01;97702.38;10326683;28;20746;-49
2023/12/11 05:07:16;;;;;;;100.38;26.75;;;;;;;1.78;89.00;97721.44;10325873;28;20107;-49
2023/12/11 05:12:15;;;;;;;106.25;27.30;;;;;;;1.42;88.95;97636.72;10326586;28;20095;-50
2023/12/11 05:17:14;;;;;;;84.53;26.27;;;;;;;1.91;88.56;97705.69;10326107;28;20033;-49
2023/12/11 05:22:13;;;;;;;90.28;27.70;;;;;;;1.65;88.66;97674.16;10325441;28;20053;-50
2023/12/11 05:27:12;;;;;;;80.60;25.58;;;;;;;1.91;88.17;97710.81;10326171;28;20528;-49
2023/12/11 05:32:12;;;;;;;128.10;28.17;;;;;;;1.74;87.67;97710.28;10325136;28;20523;-50
2023/12/11 05:37:11;;;;;;;109.88;26.88;;;;;;;1.74;88.06;97740.97;10324675;28;20107;-50
2023/12/11 05:42:10;;;;;;;84.47;26.23;;;;;;;1.54;88.74;97724.06;10325251;28;20029;-50
2023/12/11 05:47:09;;;;;;;129.05;26.75;;;;;;;1.00;88.92;97665.13;10323975;28;20069;-49
2023/12/11 05:52:08;;;;;;;111.85;26.20;;;;;;;0.88;89.59;97686.88;10321658;28;20030;-49
2023/12/11 05:57:07;;;;;;;91.53;26.65;;;;;;;0.83;89.37;97680.72;10323536;28;20041;-50
2023/12/11 06:02:06;;;;;;;83.40;27.10;;;;;;;1.13;89.41;97700.53;10322187;28;20041;-50
2023/12/11 06:07:06;;;;;;;85.15;27.13;;;;;;;1.36;89.45;97719.19;10319407;28;20067;-50
2023/12/11 06:12:05;;;;;;;;;;;;;;;1.42;89.51;97782.47;10323297;28;20149;-49
2023/12/11 06:17:04;;;;;;;106.17;35.07;;;;;;;-0.24;90.09;97538.97;10323356;28;19959;-50
2023/12/11 06:22:03;;;;;;;134.63;30.92;;;;;;;1.26;90.55;97769.13;10322930;28;20350;-50
2023/12/11 06:27:02;;;;;;;126.65;28.63;;;;;;;1.07;91.18;97739.50;10323441;28;20072;-49
2023/12/11 06:32:01;;;;;;;;;;;;;;;1.35;91.38;97766.03;10321775;28;20116;-50
2023/12/11 06:37:00;;;;;;;115.75;36.92;;;;;;;1.26;91.06;97715.44;10322219;28;19967;-49
2023/12/11 06:41:59;;;;;;;83.82;36.65;;;;;;;1.54;90.97;97754.75;10323001;28;20116;-50
2023/12/11 06:46:58;;;;;;;72.47;28.98;;;;;;;1.71;90.93;97771.53;10322623;28;20064;-49
2023/12/11 06:51:57;;;;;;;125.57;28.80;;;;;;;1.56;90.18;97745.47;10322681;28;20030;-50
2023/12/11 06:56:56;;;;;;;109.13;36.83;;;;;;;0.55;90.07;97575.88;10323139;28;20068;-50
2023/12/11 07:01:55;;;;;;;90.05;30.38;;;;;;;1.28;88.90;97698.47;10322115;28;20032;-50
2023/12/11 07:06:54;;;;;;;83.30;25.02;;;;;;;1.75;89.20;97786.19;10322581;28;20049;-49
2023/12/11 07:11:54;;;;;;;83.80;28.10;;;;;;;1.57;89.13;97777.00;10322519;28;20061;-48
2023/12/11 07:16:52;;;;;;;139.00;28.20;;;;;;;1.46;89.06;97758.75;10328917;28;20104;-49
2023/12/11 07:21:51;;;;;;;101.88;27.13;;;;;;;1.27;89.35;97776.00;10329321;28;20267;-49
2023/12/11 07:26:51;;;;;;;78.65;27.05;;;;;;;1.10;89.78;97777.06;10329716;28;20030;-48
2023/12/11 07:31:50;;;;;;;120.72;34.35;;;;;;;1.26;89.86;97778.50;10334545;28;20049;-48
2023/12/11 07:36:51;;;;;;;121.63;39.92;;;;;;;1.49;89.87;97786.97;10328770;28;20053;-48
2023/12/11 07:41:50;;;;;;;84.93;31.60;;;;;;;1.42;89.76;97788.44;10326365;28;20157;-48
2023/12/11 07:46:49;;;;;;;121.30;36.40;;;;;;;1.64;89.08;97781.53;10327430;28;20030;-49
2023/12/11 07:51:48;;;;;;;151.82;36.10;;;;;;;1.67;88.65;97820.88;10319044;28;20115;-49
2023/12/11 07:56:47;;;;;;;101.95;36.53;;;;;;;1.28;88.44;97775.19;10324655;28;20033;-51
2023/12/11 08:01:47;;;;;;;119.03;39.55;;;;;;;1.49;89.20;97807.44;10329799;28;20076;-49
2023/12/11 08:06:47;;;;;;;66.10;24.95;;;;;;;1.78;89.44;97810.13;10329626;28;20511;-51
2023/12/11 08:11:46;;;;;;;;;;;;;;;2.31;89.42;97844.34;10329755;28;20101;-49
2023/12/11 08:16:45;;;;;;;88.55;31.35;;;;;;;2.49;87.55;97793.72;10324207;28;19927;-49
2023/12/11 08:21:44;;;;;;;97.43;31.10;;;;;;;2.46;86.14;97798.72;10327796;28;20121;-49
2023/12/11 08:26:43;;;;;;;96.72;39.28;;;;;;;2.33;86.42;97817.09;10326901;28;20137;-49
2023/12/11 08:31:43;;;;;;;;;;;;;;;2.69;86.91;97830.19;10330219;28;20063;-51
2023/12/11 08:36:42;;;;;;;92.97;40.17;;;;;;;2.88;85.62;97813.69;10324465;28;19997;-49
2023/12/11 08:41:41;;;;;;;72.68;36.65;;;;;;;3.16;85.69;97786.28;10328912;28;20117;-49
2023/12/11 08:46:40;;;;;;;74.75;35.47;;;;;;;3.06;83.46;97756.09;10328268;28;20926;-49
2023/12/11 08:51:39;;;;;;;76.20;41.47;;;;;;;3.34;82.54;97776.56;10326608;28;20698;-49
2023/12/11 08:56:38;;;;;;;51.72;26.73;;;;;;;3.06;81.85;97738.16;10326850;28;20108;-50
2023/12/11 09:01:37;;;;;;;48.78;24.17;;;;;;;3.50;82.17;97792.38;10328713;28;20028;-52
2023/12/11 09:06:36;;;;;;;49.75;26.88;;;;;;;3.22;81.10;97722.38;10328803;28;20140;-49
2023/12/11 09:11:35;;;;;;;56.97;33.58;;;;;;;3.58;81.29;97742.13;10326277;28;20028;-49
2023/12/11 09:16:34;;;;;;;57.85;29.42;;;;;;;3.59;79.62;97702.84;10324039;28;20037;-49
2023/12/11 09:21:33;;;;;;;41.15;23.40;;;;;;;3.73;79.66;97741.66;10329324;28;20033;-49
2023/12/11 09:26:32;;;;;;;49.60;26.75;;;;;;;3.47;80.27;97729.00;10324259;28;20036;-49
2023/12/11 09:31:31;;;;;;;53.22;29.83;;;;;;;3.18;81.67;97731.66;10327227;28;20017;-49
2023/12/11 09:36:30;;;;;;;63.63;37.25;;;;;;;2.96;81.81;97704.56;10321069;28;20048;-49
2023/12/11 09:41:32;;;;;;;64.10;33.90;;;;;;;3.36;81.82;97717.63;10324331;28;20484;-49
2023/12/11 09:46:38;;;;;;;59.90;32.25;;;;;;;3.20;81.94;97647.09;10324690;28;20115;-50
2023/12/11 09:51:38;;;;;;;59.25;30.50;;;;;;;3.60;81.89;97668.63;10324729;28;21624;-49
2023/12/11 09:56:39;;;;;;;53.67;28.98;;;;;;;3.89;80.75;97661.63;10326702;28;20044;-49
2023/12/11 10:01:38;;;;;;;51.45;28.65;;;;;;;4.18;80.18;97658.88;10323435;28;20105;-51
2023/12/11 10:06:37;;;;;;;60.42;30.88;;;;;;;4.31;79.82;97630.06;10325465;28;20029;-49
2023/12/11 10:11:36;;;;;;;53.33;31.55;;;;;;;4.34;79.21;97598.41;10324305;28;20075;-49
2023/12/11 10:16:36;;;;;;;42.72;25.48;;;;;;;4.78;78.39;97631.88;10325407;28;20087;-49
2023/12/11 10:21:40;;;;;;;55.53;32.95;;;;;;;4.81;77.55;97599.41;10321139;28;20121;-49
2023/12/11 10:26:52;;;;;;;46.88;27.08;;;;;;;5.01;77.63;97604.06;10323310;28;20124;-49
2023/12/11 10:31:59;;;;;;;51.80;31.10;;;;;;;5.01;77.30;97622.94;10323441;28;20108;-49
2023/12/11 10:36:58;;;;;;;39.10;25.17;;;;;;;5.28;78.48;97632.00;10325405;28;20104;-50
2023/12/11 10:42:07;;;;;;;39.78;21.38;;;;;;;5.26;77.47;97605.38;10323836;28;20112;-50
2023/12/11 10:47:07;;;;;;;33.38;19.73;;;;;;;5.64;77.01;97587.13;10321786;28;20123;-51
2023/12/11 10:52:06;;;;;;;;;;;;;;;6.02;75.82;97608.31;10331829;28;20508;-50
2023/12/11 10:57:11;;;;;;;43.15;23.95;;;;;;;6.23;74.98;97614.63;10329989;28;20319;-49
2023/12/11 11:02:15;;;;;;;41.08;23.95;;;;;;;6.33;74.63;97581.28;10329704;28;20112;-48
2023/12/11 11:07:34;;;;;;;36.17;22.77;;;;;;;6.67;73.67;97607.44;10333055;28;20675;-49
2023/12/11 11:12:44;;;;;;;32.50;20.35;;;;;;;6.45;72.54;97539.31;10330349;28;20505;-49
2023/12/11 11:18:01;;;;;;;33.83;17.25;;;;;;;7.23;71.70;97607.19;10331098;28;20144;-49
2023/12/11 11:23:18;;;;;;;23.15;14.98;;;;;;;7.53;69.42;97595.47;10330830;28;20128;-50
2023/12/11 11:28:37;;;;;;;14.82;8.13;;;;;;;7.69;64.58;97580.09;10331188;28;20065;-50
2023/12/11 11:33:47;;;;;;;10.40;7.82;;;;;;;7.96;63.02;97520.00;10331977;28;20805;-50
2023/12/11 11:39:01;;;;;;;14.35;7.80;;;;;;;8.13;59.57;97517.50;10331844;28;20072;-52
2023/12/11 11:44:04;;;;;;;12.63;8.38;;;;;;;8.44;57.36;97527.13;10332162;28;20693;-49
2023/12/11 11:49:03;;;;;;;11.73;7.28;;;;;;;8.44;56.03;97498.69;10330134;28;20640;-50
2023/12/11 11:54:02;;;;;;;12.93;8.85;;;;;;;8.96;56.45;97508.28;10327561;28;20429;-49
2023/12/11 11:59:03;;;;;;;9.60;7.13;;;;;;;9.06;55.82;97449.63;10344827;28;20132;-50
2023/12/11 12:04:03;;;;;;;9.40;7.25;;;;;;;9.59;55.73;97482.41;10328727;28;20120;-50
2023/12/11 12:09:02;;;;;;;;;;;;;;;9.61;53.16;97472.06;10329509;28;20057;-49
2023/12/11 12:14:01;;;;;;;11.67;8.10;;;;;;;9.67;53.64;97457.34;10327478;28;20029;-50
2023/12/11 12:19:00;;;;;;;16.45;10.88;;;;;;;9.77;53.53;97464.25;10331132;28;20108;-50
2023/12/11 12:24:06;;;;;;;16.85;10.30;;;;;;;9.77;53.96;97455.63;10337734;28;20045;-50
2023/12/11 12:29:05;;;;;;;11.93;8.00;;;;;;;9.52;53.97;97379.69;10329692;28;21609;-49
2023/12/11 12:34:06;;;;;;;12.25;8.77;;;;;;;10.08;54.04;97427.00;10329803;28;20489;-50
2023/12/11 12:39:05;;;;;;;11.85;8.10;;;;;;;10.17;52.85;97393.25;10327886;28;20069;-50
2023/12/11 12:44:04;;;;;;;15.55;9.27;;;;;;;10.41;53.10;97384.47;10326312;28;20116;-50
2023/12/11 12:49:11;;;;;;;16.08;10.20;;;;;;;10.64;51.48;97396.44;10329909;28;20053;-49
2023/12/11 12:54:11;;;;;;;28.92;17.83;;;;;;;10.71;52.36;97378.19;10327365;28;21103;-50
2023/12/11 12:59:10;;;;;;;19.92;15.15;;;;;;;10.39;52.65;97350.75;10323091;28;20568;-50
2023/12/11 13:04:10;;;;;;;19.83;15.60;;;;;;;10.50;52.13;97374.03;10325627;28;20061;-50
2023/12/11 13:09:10;;;;;;;22.80;16.25;;;;;;;10.48;52.75;97388.72;10327555;28;20132;-49
2023/12/11 13:14:13;;;;;;;24.45;13.38;;;;;;;10.41;53.40;97379.28;10326471;28;20060;-49
2023/12/11 13:19:12;;;;;;;20.85;12.45;;;;;;;10.31;53.03;97356.88;10325503;28;20072;-50
2023/12/11 13:24:11;;;;;;;17.27;12.60;;;;;;;10.50;52.63;97373.16;10325686;28;20048;-49
2023/12/11 13:29:10;;;;;;;16.98;11.90;;;;;;;10.62;52.72;97376.53;10326776;28;20037;-50
2023/12/11 13:34:09;;;;;;;15.23;11.05;;;;;;;10.17;51.54;97292.97;10324874;28;20465;-49
2023/12/11 13:39:08;;;;;;;20.35;10.75;;;;;;;10.52;51.21;97389.56;10325328;28;20053;-50
2023/12/11 13:44:07;;;;;;;;;;;;;;;10.35;51.07;97381.88;10323594;28;20061;-48
2023/12/11 13:49:06;;;;;;;8.93;6.55;;;;;;;9.96;51.10;97356.19;10322530;28;19919;-48
2023/12/11 13:54:05;;;;;;;12.10;8.32;;;;;;;9.86;51.34;97371.78;10326748;28;20060;-49
2023/12/11 13:59:04;;;;;;;11.63;7.18;;;;;;;10.02;51.61;97407.13;10326214;28;20037;-50
2023/12/11 14:04:05;;;;;;;12.27;8.10;;;;;;;9.94;50.98;97401.97;10326889;28;20504;-49
2023/12/11 14:09:04;;;;;;;9.90;7.10;;;;;;;9.71;50.72;97402.06;10326040;28;20076;-50
2023/12/11 14:14:03;;;;;;;7.63;6.22;;;;;;;9.73;51.53;97421.06;10334351;28;20072;-49
2023/12/11 14:19:02;;;;;;;8.57;6.63;;;;;;;9.57;52.04;97403.84;10326074;28;20353;-49
2023/12/11 14:24:03;;;;;;;10.90;6.30;;;;;;;9.50;51.83;97402.13;10324471;28;20093;-49
2023/12/11 14:29:02;;;;;;;9.60;7.10;;;;;;;9.55;52.03;97410.75;10325617;28;20064;-49
2023/12/11 14:34:01;;;;;;;12.43;8.05;;;;;;;8.51;52.71;97240.97;10325698;28;20068;-50
2023/12/11 14:39:00;;;;;;;10.73;8.05;;;;;;;9.37;52.78;97396.09;10324843;28;20033;-48
2023/12/11 14:43:59;;;;;;;16.95;10.48;;;;;;;9.24;52.26;97369.34;10325018;28;20034;-48
2023/12/11 14:48:58;;;;;;;12.88;10.07;;;;;;;9.01;52.03;97340.06;10325533;28;20418;-48
2023/12/11 14:53:58;;;;;;;15.02;9.68;;;;;;;8.72;51.67;97299.56;10325765;28;20112;-48
2023/12/11 14:58:57;;;;;;;12.57;9.80;;;;;;;9.14;51.28;97371.09;10324761;28;20132;-49
2023/12/11 15:03:56;;;;;;;13.02;10.45;;;;;;;8.77;51.57;97313.34;10323393;28;20116;-49
2023/12/11 15:08:57;;;;;;;17.08;10.82;;;;;;;8.71;51.63;97327.13;10325040;28;20041;-49
2023/12/11 15:13:56;;;;;;;16.70;9.75;;;;;;;8.50;51.95;97340.97;10324435;28;20056;-49
2023/12/11 15:18:55;;;;;;;18.42;10.50;;;;;;;8.47;52.20;97369.38;10325176;28;20183;-49
2023/12/11 15:23:54;;;;;;;16.00;10.65;;;;;;;7.79;52.24;97302.94;10324193;28;20481;-49
2023/12/11 15:28:52;;;;;;;28.38;18.67;;;;;;;8.13;52.55;97384.00;10322605;28;20129;-49
2023/12/11 15:33:51;;;;;;;45.65;27.92;;;;;;;7.77;53.26;97382.97;10326074;28;20611;-49
2023/12/11 15:38:51;;;;;;;42.92;29.67;;;;;;;7.63;54.80;97408.75;10331914;28;20049;-49
2023/12/11 15:43:50;;;;;;;67.18;40.80;;;;;;;7.36;55.97;97401.69;10330693;28;20080;-49
2023/12/11 15:48:49;;;;;;;52.90;29.60;;;;;;;7.07;56.63;97391.16;10331461;28;20100;-49
2023/12/11 15:53:48;;;;;;;46.42;28.30;;;;;;;6.85;57.02;97389.31;10331213;28;20045;-49
2023/12/11 15:58:47;;;;;;;43.00;26.25;;;;;;;6.20;58.34;97324.28;10330917;28;20041;-49
2023/12/11 16:03:46;;;;;;;65.90;37.67;;;;;;;6.38;58.95;97388.91;10331500;28;20033;-48
2023/12/11 16:08:45;;;;;;;58.38;36.00;;;;;;;6.11;59.67;97392.03;10330731;28;20120;-50
2023/12/11 16:13:45;;;;;;;53.80;35.55;;;;;;;5.91;60.82;97381.53;10329124;28;20072;-49
2023/12/11 16:18:46;;;;;;;48.70;29.75;;;;;;;5.79;61.63;97406.25;10349790;28;20087;-49
2023/12/11 16:23:45;;;;;;;46.15;29.35;;;;;;;5.52;61.25;97392.22;10371160;28;20614;-49
2023/12/11 16:28:44;;;;;;;50.75;32.35;;;;;;;5.40;62.57;97390.34;10370130;28;20028;-49
2023/12/11 16:33:43;;;;;;;75.63;49.45;;;;;;;5.17;62.36;97384.00;10371223;28;20091;-49
2023/12/11 16:38:42;;;;;;;92.97;59.05;;;;;;;5.07;63.95;97403.59;10369152;28;20488;-49
2023/12/11 16:43:48;;;;;;;97.53;57.63;;;;;;;5.04;63.69;97439.53;10368124;28;20468;-49
2023/12/11 16:48:47;;;;;;;77.38;50.25;;;;;;;4.69;65.12;97445.81;10366028;28;20100;-50
2023/12/11 16:53:46;;;;;;;73.05;49.75;;;;;;;4.70;65.56;97444.97;10367165;28;20120;-50
2023/12/11 16:58:45;;;;;;;68.57;45.33;;;;;;;4.62;65.11;97445.66;10369625;28;20068;-51
2023/12/11 17:03:44;;;;;;;65.68;43.33;;;;;;;3.36;64.90;97236.31;10369602;28;20016;-49
2023/12/11 17:08:43;;;;;;;61.33;39.85;;;;;;;4.10;65.40;97396.78;10367375;28;20508;-49
2023/12/11 17:13:42;;;;;;;59.10;39.92;;;;;;;4.09;65.44;97397.63;10367273;28;20492;-50
2023/12/11 17:18:42;;;;;;;81.32;49.25;;;;;;;3.97;65.94;97405.09;10366588;28;20503;-49
2023/12/11 17:23:40;;;;;;;;;;;;;;;4.03;67.82;97431.78;10368603;28;20144;-49
2023/12/11 17:28:39;;;;;;;60.25;38.08;;;;;;;3.59;68.27;97359.03;10368869;28;19912;-49
2023/12/11 17:33:39;;;;;;;50.45;36.05;;;;;;;3.40;67.59;97356.09;10366857;28;20113;-49
2023/12/11 17:38:38;;;;;;;56.50;38.60;;;;;;;3.66;68.86;97422.47;10368481;28;20071;-49
2023/12/11 17:43:37;;;;;;;44.15;31.48;;;;;;;3.57;68.52;97412.00;10365751;28;20021;-49
2023/12/11 17:48:36;;;;;;;60.63;41.28;;;;;;;3.15;69.79;97361.53;10367409;28;20036;-49
2023/12/11 17:53:35;;;;;;;54.13;39.72;;;;;;;3.31;70.67;97393.47;10367585;28;20531;-49
2023/12/11 17:58:35;;;;;;;52.65;37.88;;;;;;;3.23;71.12;97381.34;10367131;28;20071;-49
2023/12/11 18:03:34;;;;;;;69.05;49.17;;;;;;;3.27;70.51;97394.25;10366346;28;20116;-48
2023/12/11 18:08:33;;;;;;;62.17;39.47;;;;;;;3.17;71.13;97380.38;10366055;28;20141;-49
2023/12/11 18:13:32;;;;;;;63.75;40.78;;;;;;;3.16;71.19;97386.31;10367722;28;20436;-49
2023/12/11 18:18:31;;;;;;;47.33;32.35;;;;;;;2.80;70.68;97324.03;10366417;28;20116;-49
2023/12/11 18:23:30;;;;;;;60.67;38.78;;;;;;;2.64;70.29;97295.47;10366543;28;21251;-48
2023/12/11 18:28:29;;;;;;;50.97;31.35;;;;;;;2.91;70.24;97346.44;10366479;28;20070;-48
2023/12/11 18:33:28;;;;;;;51.25;32.17;;;;;;;3.21;70.18;97397.53;10365453;28;20027;-49
2023/12/11 18:38:27;;;;;;;54.20;34.33;;;;;;;3.17;70.27;97390.63;10366503;28;20031;-48
2023/12/11 18:43:26;;;;;;;65.30;42.30;;;;;;;2.94;70.50;97365.34;10364701;28;20547;-49
2023/12/11 18:48:25;;;;;;;68.43;38.92;;;;;;;2.92;70.61;97337.94;10365324;28;20555;-48
2023/12/11 18:53:24;;;;;;;;;;;;;;;3.08;70.52;97364.78;10367156;28;20075;-49
2023/12/11 18:58:25;;;;;;;69.13;42.80;;;;;;;2.84;71.31;97345.47;10364115;28;19987;-48
2023/12/11 19:03:24;;;;;;;106.22;64.00;;;;;;;1.69;71.77;97167.00;10365034;28;20504;-48
2023/12/11 19:08:23;;;;;;;95.60;60.50;;;;;;;2.80;72.10;97362.47;10367191;28;20531;-48
2023/12/11 19:13:23;;;;;;;103.97;63.10;;;;;;;2.52;73.11;97331.91;10372934;28;20060;-50
2023/12/11 19:18:22;;;;;;;91.07;58.28;;;;;;;2.62;73.07;97363.72;10371419;28;20053;-50
2023/12/11 19:23:21;;;;;;;;;;;;;;;2.61;73.68;97362.88;10372840;28;20156;-49
2023/12/11 19:28:20;;;;;;;108.68;67.18;;;;;;;2.45;74.99;97355.63;10371699;28;19916;-49
2023/12/11 19:33:19;;;;;;;134.00;79.65;;;;;;;2.41;75.45;97339.31;10371542;28;20068;-49
2023/12/11 19:38:18;;;;;;;133.68;82.10;;;;;;;2.36;76.47;97341.75;10372551;28;20498;-48
2023/12/11 19:43:17;;;;;;;188.85;114.65;;;;;;;2.41;75.88;97318.84;10372600;28;20033;-50
2023/12/11 19:48:17;;;;;;;188.98;116.68;;;;;;;2.44;76.07;97324.06;10372261;28;20025;-48
2023/12/11 19:53:18;;;;;;;210.05;124.95;;;;;;;2.37;76.85;97306.78;10373214;28;20109;-48
2023/12/11 19:58:18;;;;;;;230.80;140.13;;;;;;;2.29;76.25;97292.94;10372084;28;20068;-48
2023/12/11 20:03:17;;;;;;;182.95;105.55;;;;;;;2.19;76.56;97267.97;10371324;28;20128;-49
2023/12/11 20:08:16;;;;;;;175.88;105.65;;;;;;;2.34;76.51;97270.88;10371999;28;20476;-48
2023/12/11 20:13:15;;;;;;;154.40;95.80;;;;;;;1.96;76.42;97210.25;10371858;28;20086;-49
2023/12/11 20:18:16;;;;;;;157.00;95.40;;;;;;;2.33;76.10;97269.16;10371027;28;20587;-49
2023/12/11 20:23:15;;;;;;;152.63;93.85;;;;;;;2.35;76.48;97265.78;10370477;28;20108;-48
2023/12/11 20:28:14;;;;;;;165.18;102.82;;;;;;;2.29;76.79;97259.66;10371202;28;20460;-48
2023/12/11 20:33:13;;;;;;;158.35;95.05;;;;;;;2.21;78.64;97295.34;10369347;28;20484;-48
2023/12/11 20:38:12;;;;;;;126.97;76.03;;;;;;;2.00;78.57;97292.22;10370211;28;20771;-48
2023/12/11 20:43:11;;;;;;;125.80;75.43;;;;;;;2.22;77.78;97312.41;10370205;28;20612;-48
2023/12/11 20:48:10;;;;;;;99.05;55.75;;;;;;;2.33;77.34;97323.78;10369921;28;20060;-48
2023/12/11 20:53:09;;;;;;;109.72;57.90;;;;;;;2.50;77.23;97316.50;10370154;28;20457;-48
2023/12/11 20:58:08;;;;;;;102.55;60.08;;;;;;;2.34;76.77;97276.00;10369829;28;20488;-50
2023/12/11 21:03:08;;;;;;;116.13;66.53;;;;;;;2.37;77.31;97296.53;10369555;28;20035;-48
2023/12/11 21:08:07;;;;;;;104.50;56.72;;;;;;;2.01;77.33;97235.09;10367065;28;20647;-49
2023/12/11 21:13:06;;;;;;;142.05;81.13;;;;;;;2.32;78.17;97282.78;10369889;28;20035;-48
2023/12/11 21:18:05;;;;;;;169.70;98.20;;;;;;;1.46;77.90;97117.00;10368829;28;20547;-49
2023/12/11 21:23:04;;;;;;;175.32;103.13;;;;;;;2.49;77.54;97254.97;10368410;28;20083;-49
2023/12/11 21:28:03;;;;;;;205.30;113.25;;;;;;;2.70;77.67;97275.97;10368563;28;20021;-49
2023/12/11 21:33:02;;;;;;;193.35;111.35;;;;;;;2.73;77.65;97295.66;10368162;28;20122;-48
2023/12/11 21:38:03;;;;;;;172.80;103.13;;;;;;;2.82;77.51;97303.56;10367878;28;20068;-48
2023/12/11 21:43:02;;;;;;;192.57;101.47;;;;;;;2.41;77.38;97257.38;10368285;28;20850;-49
2023/12/11 21:48:01;;;;;;;178.32;89.68;;;;;;;2.72;77.34;97289.69;10367800;28;20441;-50
2023/12/11 21:53:00;;;;;;;159.93;97.47;;;;;;;2.98;77.20;97328.69;10367661;28;21717;-48
2023/12/11 21:58:00;;;;;;;151.23;87.63;;;;;;;3.00;77.07;97350.09;10367588;28;20052;-48
2023/12/11 22:02:59;;;;;;;150.65;90.57;;;;;;;2.80;77.78;97331.72;10367260;28;20116;-49
2023/12/11 22:07:58;;;;;;;157.07;92.10;;;;;;;3.01;77.85;97346.69;10366235;28;20029;-50
2023/12/11 22:12:57;;;;;;;162.90;92.53;;;;;;;3.15;77.10;97387.16;10366155;28;20021;-48
2023/12/11 22:17:56;;;;;;;142.10;85.60;;;;;;;3.03;76.88;97336.50;10364016;28;20400;-48
2023/12/11 22:22:55;;;;;;;157.13;89.95;;;;;;;3.24;77.03;97407.88;10365739;28;20071;-48
2023/12/11 22:27:54;;;;;;;166.90;100.95;;;;;;;3.17;76.91;97367.56;10366045;28;20120;-48
2023/12/11 22:32:53;;;;;;;113.30;67.68;;;;;;;3.30;76.89;97366.97;10366579;28;20033;-48
2023/12/11 22:37:52;;;;;;;83.63;48.60;;;;;;;2.93;77.10;97340.56;10366148;28;20056;-49
2023/12/11 22:42:51;;;;;;;45.10;28.80;;;;;;;2.85;76.46;97313.00;10366026;28;20068;-48
2023/12/11 22:47:50;;;;;;;43.90;27.20;;;;;;;3.33;76.36;97361.03;10366284;28;20064;-49
2023/12/11 22:52:51;;;;;;;45.92;28.40;;;;;;;3.47;75.40;97348.50;10366211;28;20021;-48
2023/12/11 22:57:51;;;;;;;42.42;28.00;;;;;;;3.88;74.87;97397.22;10366297;28;20136;-48
2023/12/11 23:02:50;;;;;;;;;;;;;;;3.97;74.72;97382.00;10366161;28;20614;-49